sensor_id;sensor_type;location;lat;lon;timestamp;temperature;humidity
74359;DHT22;62792;46.236;6.040;2023-05-16T00:02:39;23.40;52.40
74359;DHT22;62792;46.236;6.040;2023-05-16T00:07:42;23.50;52.30
74359;DHT22;62792;46.236;6.040;2023-05-16T00:12:45;23.50;52.40
74359;DHT22;62792;46.236;6.040;2023-05-16T00:17:50;23.50;52.40
74359;DHT22;62792;46.236;6.040;2023-05-16T00:22:53;23.40;52.40
74359;DHT22;62792;46.236;6.040;2023-05-16T00:27:56;23.40;52.40
74359;DHT22;62792;46.236;6.040;2023-05-16T00:33:00;23.40;52.30
74359;DHT22;62792;46.236;6.040;2023-05-16T00:38:03;23.30;52.10
74359;DHT22;62792;46.236;6.040;2023-05-16T00:43:06;23.30;52.30
74359;DHT22;62792;46.236;6.040;2023-05-16T00:48:10;23.30;52.50
74359;DHT22;62792;46.236;6.040;2023-05-16T00:53:14;23.30;52.10
74359;DHT22;62792;46.236;6.040;2023-05-16T00:58:17;23.30;52.30
74359;DHT22;62792;46.236;6.040;2023-05-16T01:03:22;23.20;52.50
74359;DHT22;62792;46.236;6.040;2023-05-16T01:08:25;23.30;52.30
74359;DHT22;62792;46.236;6.040;2023-05-16T01:13:30;23.20;52.30
74359;DHT22;62792;46.236;6.040;2023-05-16T01:18:40;23.10;52.30
74359;DHT22;62792;46.236;6.040;2023-05-16T01:23:50;23.20;52.30
74359;DHT22;62792;46.236;6.040;2023-05-16T01:28:56;23.20;52.10
74359;DHT22;62792;46.236;6.040;2023-05-16T01:33:59;23.20;52.30
74359;DHT22;62792;46.236;6.040;2023-05-16T01:39:10;23.10;52.10
74359;DHT22;62792;46.236;6.040;2023-05-16T01:44:24;23.10;52.10
74359;DHT22;62792;46.236;6.040;2023-05-16T01:49:30;23.10;52.10
74359;DHT22;62792;46.236;6.040;2023-05-16T01:54:38;23.10;52.00
74359;DHT22;62792;46.236;6.040;2023-05-16T01:59:46;23.20;52.00
74359;DHT22;62792;46.236;6.040;2023-05-16T02:04:49;23.10;51.70
74359;DHT22;62792;46.236;6.040;2023-05-16T02:09:52;23.10;52.00
74359;DHT22;62792;46.236;6.040;2023-05-16T02:14:57;23.10;51.80
74359;DHT22;62792;46.236;6.040;2023-05-16T02:19:59;23.10;52.00
74359;DHT22;62792;46.236;6.040;2023-05-16T02:25:07;23.00;52.00
74359;DHT22;62792;46.236;6.040;2023-05-16T02:30:12;23.00;51.90
74359;DHT22;62792;46.236;6.040;2023-05-16T02:35:15;23.10;51.40
74359;DHT22;62792;46.236;6.040;2023-05-16T02:40:18;23.10;51.60
74359;DHT22;62792;46.236;6.040;2023-05-16T02:45:22;23.00;52.00
74359;DHT22;62792;46.236;6.040;2023-05-16T02:50:25;23.10;52.00
74359;DHT22;62792;46.236;6.040;2023-05-16T02:55:28;23.00;51.70
74359;DHT22;62792;46.236;6.040;2023-05-16T03:00:34;23.10;51.80
74359;DHT22;62792;46.236;6.040;2023-05-16T03:05:37;23.10;51.70
74359;DHT22;62792;46.236;6.040;2023-05-16T03:10:40;23.00;51.60
74359;DHT22;62792;46.236;6.040;2023-05-16T03:15:44;23.00;51.60
74359;DHT22;62792;46.236;6.040;2023-05-16T03:20:47;23.00;51.60
74359;DHT22;62792;46.236;6.040;2023-05-16T03:25:53;23.00;51.80
74359;DHT22;62792;46.236;6.040;2023-05-16T03:30:57;23.10;51.60
74359;DHT22;62792;46.236;6.040;2023-05-16T03:36:00;23.00;51.70
74359;DHT22;62792;46.236;6.040;2023-05-16T03:41:04;23.00;51.40
74359;DHT22;62792;46.236;6.040;2023-05-16T03:46:08;23.00;51.50
74359;DHT22;62792;46.236;6.040;2023-05-16T03:51:11;23.00;51.70
74359;DHT22;62792;46.236;6.040;2023-05-16T03:56:14;22.90;51.40
74359;DHT22;62792;46.236;6.040;2023-05-16T04:01:18;23.00;51.40
74359;DHT22;62792;46.236;6.040;2023-05-16T04:06:21;22.90;51.50
74359;DHT22;62792;46.236;6.040;2023-05-16T04:11:24;23.00;51.40
74359;DHT22;62792;46.236;6.040;2023-05-16T04:16:29;22.90;51.60
74359;DHT22;62792;46.236;6.040;2023-05-16T04:21:32;23.00;51.60
74359;DHT22;62792;46.236;6.040;2023-05-16T04:26:36;23.00;51.50
74359;DHT22;62792;46.236;6.040;2023-05-16T04:31:40;23.00;51.30
74359;DHT22;62792;46.236;6.040;2023-05-16T04:36:43;22.90;51.50
74359;DHT22;62792;46.236;6.040;2023-05-16T04:41:46;22.90;51.70
74359;DHT22;62792;46.236;6.040;2023-05-16T04:46:50;23.00;51.40
74359;DHT22;62792;46.236;6.040;2023-05-16T04:51:53;22.90;51.40
74359;DHT22;62792;46.236;6.040;2023-05-16T04:56:58;23.00;51.50
74359;DHT22;62792;46.236;6.040;2023-05-16T05:02:04;22.90;51.70
74359;DHT22;62792;46.236;6.040;2023-05-16T05:07:08;23.00;51.60
74359;DHT22;62792;46.236;6.040;2023-05-16T05:12:11;23.00;51.70
74359;DHT22;62792;46.236;6.040;2023-05-16T05:17:15;23.10;51.50
74359;DHT22;62792;46.236;6.040;2023-05-16T05:22:18;23.00;51.40
74359;DHT22;62792;46.236;6.040;2023-05-16T05:27:21;23.10;51.70
74359;DHT22;62792;46.236;6.040;2023-05-16T05:32:27;23.10;51.40
74359;DHT22;62792;46.236;6.040;2023-05-16T05:37:30;23.00;51.60
74359;DHT22;62792;46.236;6.040;2023-05-16T05:42:32;23.10;51.50
74359;DHT22;62792;46.236;6.040;2023-05-16T05:47:37;23.10;51.70
74359;DHT22;62792;46.236;6.040;2023-05-16T05:52:40;23.10;51.70
74359;DHT22;62792;46.236;6.040;2023-05-16T05:57:45;23.20;51.60
74359;DHT22;62792;46.236;6.040;2023-05-16T06:02:49;23.20;51.40
74359;DHT22;62792;46.236;6.040;2023-05-16T06:07:52;23.30;51.30
74359;DHT22;62792;46.236;6.040;2023-05-16T06:12:57;23.30;51.20
74359;DHT22;62792;46.236;6.040;2023-05-16T06:18:01;23.30;51.40
74359;DHT22;62792;46.236;6.040;2023-05-16T06:23:04;23.30;51.60
74359;DHT22;62792;46.236;6.040;2023-05-16T06:28:07;23.20;51.40
74359;DHT22;62792;46.236;6.040;2023-05-16T06:33:11;23.20;51.40
74359;DHT22;62792;46.236;6.040;2023-05-16T06:38:14;23.10;51.20
74359;DHT22;62792;46.236;6.040;2023-05-16T06:43:17;23.20;51.30
74359;DHT22;62792;46.236;6.040;2023-05-16T06:48:24;23.30;51.30
74359;DHT22;62792;46.236;6.040;2023-05-16T06:53:27;23.30;51.30
74359;DHT22;62792;46.236;6.040;2023-05-16T06:58:30;23.30;51.30
74359;DHT22;62792;46.236;6.040;2023-05-16T07:03:34;23.30;51.20
74359;DHT22;62792;46.236;6.040;2023-05-16T07:08:37;23.30;51.30
74359;DHT22;62792;46.236;6.040;2023-05-16T07:13:41;23.30;51.00
74359;DHT22;62792;46.236;6.040;2023-05-16T07:18:45;23.40;51.40
74359;DHT22;62792;46.236;6.040;2023-05-16T07:23:48;23.40;51.60
74359;DHT22;62792;46.236;6.040;2023-05-16T07:28:51;23.30;53.30
74359;DHT22;62792;46.236;6.040;2023-05-16T07:33:55;23.40;53.50
74359;DHT22;62792;46.236;6.040;2023-05-16T07:38:58;23.50;53.50
74359;DHT22;62792;46.236;6.040;2023-05-16T07:44:01;23.60;53.00
74359;DHT22;62792;46.236;6.040;2023-05-16T07:49:06;23.70;52.10
74359;DHT22;62792;46.236;6.040;2023-05-16T07:54:09;23.80;52.10
74359;DHT22;62792;46.236;6.040;2023-05-16T07:59:12;23.80;51.60
74359;DHT22;62792;46.236;6.040;2023-05-16T08:04:17;23.80;51.70
74359;DHT22;62792;46.236;6.040;2023-05-16T08:09:21;23.80;51.70
74359;DHT22;62792;46.236;6.040;2023-05-16T08:14:24;23.90;51.70
74359;DHT22;62792;46.236;6.040;2023-05-16T08:19:28;23.90;51.40
74359;DHT22;62792;46.236;6.040;2023-05-16T08:24:33;23.80;51.40
74359;DHT22;62792;46.236;6.040;2023-05-16T08:29:36;23.80;51.10
74359;DHT22;62792;46.236;6.040;2023-05-16T08:34:40;23.80;50.90
74359;DHT22;62792;46.236;6.040;2023-05-16T08:39:43;23.60;50.90
74359;DHT22;62792;46.236;6.040;2023-05-16T08:44:47;24.00;51.00
74359;DHT22;62792;46.236;6.040;2023-05-16T08:49:51;24.20;50.40
74359;DHT22;62792;46.236;6.040;2023-05-16T08:54:56;24.20;50.40
74359;DHT22;62792;46.236;6.040;2023-05-16T09:00:12;24.30;50.20
74359;DHT22;62792;46.236;6.040;2023-05-16T09:05:17;24.30;50.10
74359;DHT22;62792;46.236;6.040;2023-05-16T09:10:20;24.30;49.80
74359;DHT22;62792;46.236;6.040;2023-05-16T09:15:23;24.40;49.60
74359;DHT22;62792;46.236;6.040;2023-05-16T09:20:34;24.30;49.70
74359;DHT22;62792;46.236;6.040;2023-05-16T09:25:40;24.40;49.20
74359;DHT22;62792;46.236;6.040;2023-05-16T09:30:45;24.40;49.40
74359;DHT22;62792;46.236;6.040;2023-05-16T09:35:54;24.40;49.60
74359;DHT22;62792;46.236;6.040;2023-05-16T09:40:59;24.30;49.50
74359;DHT22;62792;46.236;6.040;2023-05-16T09:46:03;24.20;49.70
74359;DHT22;62792;46.236;6.040;2023-05-16T09:51:08;24.20;49.60
74359;DHT22;62792;46.236;6.040;2023-05-16T09:56:12;24.40;49.70
74359;DHT22;62792;46.236;6.040;2023-05-16T10:01:15;24.30;49.80
74359;DHT22;62792;46.236;6.040;2023-05-16T10:06:20;24.40;49.40
74359;DHT22;62792;46.236;6.040;2023-05-16T10:11:24;24.40;49.50
74359;DHT22;62792;46.236;6.040;2023-05-16T10:16:27;24.40;49.50
74359;DHT22;62792;46.236;6.040;2023-05-16T10:21:32;24.40;49.00
74359;DHT22;62792;46.236;6.040;2023-05-16T10:26:36;24.40;48.70
74359;DHT22;62792;46.236;6.040;2023-05-16T10:31:39;24.40;48.70
74359;DHT22;62792;46.236;6.040;2023-05-16T10:36:44;24.40;48.70
74359;DHT22;62792;46.236;6.040;2023-05-16T10:41:47;24.40;48.50
74359;DHT22;62792;46.236;6.040;2023-05-16T10:46:52;24.50;48.50
74359;DHT22;62792;46.236;6.040;2023-05-16T10:52:06;24.80;48.90
74359;DHT22;62792;46.236;6.040;2023-05-16T10:57:10;24.90;48.70
74359;DHT22;62792;46.236;6.040;2023-05-16T11:02:22;24.70;48.40
74359;DHT22;62792;46.236;6.040;2023-05-16T11:07:31;24.80;48.30
74359;DHT22;62792;46.236;6.040;2023-05-16T11:12:35;24.80;48.10
74359;DHT22;62792;46.236;6.040;2023-05-16T11:17:41;24.80;48.20
74359;DHT22;62792;46.236;6.040;2023-05-16T11:22:48;24.90;47.90
74359;DHT22;62792;46.236;6.040;2023-05-16T11:27:51;25.00;47.80
74359;DHT22;62792;46.236;6.040;2023-05-16T11:32:54;25.00;47.30
74359;DHT22;62792;46.236;6.040;2023-05-16T11:37:58;25.00;47.80
74359;DHT22;62792;46.236;6.040;2023-05-16T11:43:01;25.10;47.40
74359;DHT22;62792;46.236;6.040;2023-05-16T11:48:07;25.00;47.50
74359;DHT22;62792;46.236;6.040;2023-05-16T11:53:16;25.00;48.20
74359;DHT22;62792;46.236;6.040;2023-05-16T11:58:19;24.90;47.80
74359;DHT22;62792;46.236;6.040;2023-05-16T12:03:22;24.80;47.80
74359;DHT22;62792;46.236;6.040;2023-05-16T12:08:27;24.90;47.70
74359;DHT22;62792;46.236;6.040;2023-05-16T12:13:31;25.00;47.60
74359;DHT22;62792;46.236;6.040;2023-05-16T12:18:34;24.90;47.70
74359;DHT22;62792;46.236;6.040;2023-05-16T12:23:44;25.00;47.20
74359;DHT22;62792;46.236;6.040;2023-05-16T12:28:51;24.90;47.10
74359;DHT22;62792;46.236;6.040;2023-05-16T12:33:59;25.00;46.70
74359;DHT22;62792;46.236;6.040;2023-05-16T12:39:03;24.80;46.60
74359;DHT22;62792;46.236;6.040;2023-05-16T12:44:10;25.00;47.10
74359;DHT22;62792;46.236;6.040;2023-05-16T12:49:13;25.00;47.40
74359;DHT22;62792;46.236;6.040;2023-05-16T12:54:18;24.90;47.80
74359;DHT22;62792;46.236;6.040;2023-05-16T12:59:23;24.70;47.70
74359;DHT22;62792;46.236;6.040;2023-05-16T13:04:27;24.90;47.70
74359;DHT22;62792;46.236;6.040;2023-05-16T13:09:31;24.80;47.60
74359;DHT22;62792;46.236;6.040;2023-05-16T13:14:34;25.00;47.20
74359;DHT22;62792;46.236;6.040;2023-05-16T13:19:38;24.90;47.20
74359;DHT22;62792;46.236;6.040;2023-05-16T13:24:42;24.80;47.20
74359;DHT22;62792;46.236;6.040;2023-05-16T13:29:45;24.70;47.40
74359;DHT22;62792;46.236;6.040;2023-05-16T13:34:48;24.70;47.30
74359;DHT22;62792;46.236;6.040;2023-05-16T13:39:53;24.90;47.20
74359;DHT22;62792;46.236;6.040;2023-05-16T13:44:56;25.00;47.10
74359;DHT22;62792;46.236;6.040;2023-05-16T13:49:59;25.10;46.70
74359;DHT22;62792;46.236;6.040;2023-05-16T13:55:08;25.00;47.00
74359;DHT22;62792;46.236;6.040;2023-05-16T14:00:11;24.90;46.80
74359;DHT22;62792;46.236;6.040;2023-05-16T14:05:17;25.00;47.20
74359;DHT22;62792;46.236;6.040;2023-05-16T14:10:21;24.90;47.10
74359;DHT22;62792;46.236;6.040;2023-05-16T14:15:24;24.90;46.90
74359;DHT22;62792;46.236;6.040;2023-05-16T14:20:28;24.80;47.30
74359;DHT22;62792;46.236;6.040;2023-05-16T14:25:32;24.90;47.30
74359;DHT22;62792;46.236;6.040;2023-05-16T14:30:35;25.00;47.00
74359;DHT22;62792;46.236;6.040;2023-05-16T14:35:38;24.90;47.30
74359;DHT22;62792;46.236;6.040;2023-05-16T14:40:43;24.80;47.00
74359;DHT22;62792;46.236;6.040;2023-05-16T14:45:46;24.80;46.60
74359;DHT22;62792;46.236;6.040;2023-05-16T14:50:49;24.70;46.70
74359;DHT22;62792;46.236;6.040;2023-05-16T14:55:53;24.80;46.50
74359;DHT22;62792;46.236;6.040;2023-05-16T15:00:57;24.80;46.40
74359;DHT22;62792;46.236;6.040;2023-05-16T15:06:00;25.10;46.10
74359;DHT22;62792;46.236;6.040;2023-05-16T15:11:07;25.80;45.10
74359;DHT22;62792;46.236;6.040;2023-05-16T15:16:09;26.00;44.60
74359;DHT22;62792;46.236;6.040;2023-05-16T15:21:13;26.10;44.60
74359;DHT22;62792;46.236;6.040;2023-05-16T15:26:17;25.80;45.00
74359;DHT22;62792;46.236;6.040;2023-05-16T15:31:20;25.90;44.90
74359;DHT22;62792;46.236;6.040;2023-05-16T15:36:23;25.50;45.20
74359;DHT22;62792;46.236;6.040;2023-05-16T15:41:27;25.30;45.90
74359;DHT22;62792;46.236;6.040;2023-05-16T15:46:50;25.30;45.90
74359;DHT22;62792;46.236;6.040;2023-05-16T15:51:53;25.10;46.00
74359;DHT22;62792;46.236;6.040;2023-05-16T15:56:57;25.00;45.80
74359;DHT22;62792;46.236;6.040;2023-05-16T16:02:00;24.80;45.90
74359;DHT22;62792;46.236;6.040;2023-05-16T16:07:05;24.70;46.20
74359;DHT22;62792;46.236;6.040;2023-05-16T16:12:10;24.80;46.50
74359;DHT22;62792;46.236;6.040;2023-05-16T16:17:13;24.60;46.40
74359;DHT22;62792;46.236;6.040;2023-05-16T16:22:16;24.60;46.50
74359;DHT22;62792;46.236;6.040;2023-05-16T16:27:24;24.60;46.70
74359;DHT22;62792;46.236;6.040;2023-05-16T16:32:26;24.50;46.80
74359;DHT22;62792;46.236;6.040;2023-05-16T16:37:30;24.50;46.90
74359;DHT22;62792;46.236;6.040;2023-05-16T16:42:34;24.40;46.80
74359;DHT22;62792;46.236;6.040;2023-05-16T16:47:39;24.40;47.20
74359;DHT22;62792;46.236;6.040;2023-05-16T16:52:42;24.80;46.60
74359;DHT22;62792;46.236;6.040;2023-05-16T16:57:46;24.80;46.50
74359;DHT22;62792;46.236;6.040;2023-05-16T17:02:49;24.90;46.40
74359;DHT22;62792;46.236;6.040;2023-05-16T17:07:52;24.90;46.60
74359;DHT22;62792;46.236;6.040;2023-05-16T17:12:57;24.70;46.70
74359;DHT22;62792;46.236;6.040;2023-05-16T17:18:07;24.70;46.80
74359;DHT22;62792;46.236;6.040;2023-05-16T17:23:10;24.70;47.00
74359;DHT22;62792;46.236;6.040;2023-05-16T17:28:14;24.70;46.90
74359;DHT22;62792;46.236;6.040;2023-05-16T17:33:17;24.60;47.00
74359;DHT22;62792;46.236;6.040;2023-05-16T17:38:20;24.60;47.10
74359;DHT22;62792;46.236;6.040;2023-05-16T17:43:27;24.60;47.30
74359;DHT22;62792;46.236;6.040;2023-05-16T17:48:30;24.50;46.90
74359;DHT22;62792;46.236;6.040;2023-05-16T17:53:33;24.50;47.20
74359;DHT22;62792;46.236;6.040;2023-05-16T17:58:39;24.40;47.20
74359;DHT22;62792;46.236;6.040;2023-05-16T18:03:43;24.40;47.30
74359;DHT22;62792;46.236;6.040;2023-05-16T18:08:46;24.40;47.30
74359;DHT22;62792;46.236;6.040;2023-05-16T18:13:50;24.30;47.40
74359;DHT22;62792;46.236;6.040;2023-05-16T18:18:53;24.40;47.30
74359;DHT22;62792;46.236;6.040;2023-05-16T18:23:56;24.40;47.40
74359;DHT22;62792;46.236;6.040;2023-05-16T18:29:01;24.30;47.50
74359;DHT22;62792;46.236;6.040;2023-05-16T18:34:04;24.30;47.70
74359;DHT22;62792;46.236;6.040;2023-05-16T18:39:07;24.10;47.80
74359;DHT22;62792;46.236;6.040;2023-05-16T18:44:12;24.10;47.80
74359;DHT22;62792;46.236;6.040;2023-05-16T18:49:17;24.20;47.80
74359;DHT22;62792;46.236;6.040;2023-05-16T18:54:20;24.10;47.80
74359;DHT22;62792;46.236;6.040;2023-05-16T18:59:26;24.10;47.90
74359;DHT22;62792;46.236;6.040;2023-05-16T19:04:29;24.00;47.90
74359;DHT22;62792;46.236;6.040;2023-05-16T19:09:33;24.00;48.00
74359;DHT22;62792;46.236;6.040;2023-05-16T19:14:37;24.00;48.40
74359;DHT22;62792;46.236;6.040;2023-05-16T19:19:40;24.00;48.30
74359;DHT22;62792;46.236;6.040;2023-05-16T19:24:43;24.00;48.20
74359;DHT22;62792;46.236;6.040;2023-05-16T19:29:47;23.90;48.40
74359;DHT22;62792;46.236;6.040;2023-05-16T19:34:50;23.90;48.20
74359;DHT22;62792;46.236;6.040;2023-05-16T19:39:54;23.80;48.40
74359;DHT22;62792;46.236;6.040;2023-05-16T19:44:58;23.80;47.90
74359;DHT22;62792;46.236;6.040;2023-05-16T19:50:01;23.80;48.50
74359;DHT22;62792;46.236;6.040;2023-05-16T19:55:05;23.80;48.30
74359;DHT22;62792;46.236;6.040;2023-05-16T20:00:12;23.70;48.50
74359;DHT22;62792;46.236;6.040;2023-05-16T20:05:15;23.70;48.60
74359;DHT22;62792;46.236;6.040;2023-05-16T20:10:20;23.70;48.80
74359;DHT22;62792;46.236;6.040;2023-05-16T20:15:24;23.80;48.50
74359;DHT22;62792;46.236;6.040;2023-05-16T20:20:27;23.80;48.50
74359;DHT22;62792;46.236;6.040;2023-05-16T20:25:31;23.70;48.70
74359;DHT22;62792;46.236;6.040;2023-05-16T20:30:35;23.70;48.40
74359;DHT22;62792;46.236;6.040;2023-05-16T20:35:38;23.70;48.60
74359;DHT22;62792;46.236;6.040;2023-05-16T20:40:41;23.70;48.70
74359;DHT22;62792;46.236;6.040;2023-05-16T20:45:45;23.60;49.50
74359;DHT22;62792;46.236;6.040;2023-05-16T20:50:48;23.60;49.70
74359;DHT22;62792;46.236;6.040;2023-05-16T20:55:51;23.70;48.70
74359;DHT22;62792;46.236;6.040;2023-05-16T21:00:55;23.50;49.80
74359;DHT22;62792;46.236;6.040;2023-05-16T21:05:58;23.60;49.00
74359;DHT22;62792;46.236;6.040;2023-05-16T21:11:01;23.60;48.70
74359;DHT22;62792;46.236;6.040;2023-05-16T21:16:07;23.60;49.60
74359;DHT22;62792;46.236;6.040;2023-05-16T21:21:10;23.50;49.80
74359;DHT22;62792;46.236;6.040;2023-05-16T21:26:13;23.50;49.90
74359;DHT22;62792;46.236;6.040;2023-05-16T21:31:18;23.50;49.80
74359;DHT22;62792;46.236;6.040;2023-05-16T21:36:20;23.50;49.60
74359;DHT22;62792;46.236;6.040;2023-05-16T21:41:25;23.50;49.90
74359;DHT22;62792;46.236;6.040;2023-05-16T21:46:29;23.50;49.80
74359;DHT22;62792;46.236;6.040;2023-05-16T21:51:32;23.60;49.90
74359;DHT22;62792;46.236;6.040;2023-05-16T21:56:35;23.50;49.60
74359;DHT22;62792;46.236;6.040;2023-05-16T22:01:39;23.50;49.80
74359;DHT22;62792;46.236;6.040;2023-05-16T22:06:42;23.40;49.70
74359;DHT22;62792;46.236;6.040;2023-05-16T22:11:45;23.50;49.90
74359;DHT22;62792;46.236;6.040;2023-05-16T22:16:49;23.50;49.60
74359;DHT22;62792;46.236;6.040;2023-05-16T22:21:52;23.50;50.00
74359;DHT22;62792;46.236;6.040;2023-05-16T22:26:55;23.50;49.50
74359;DHT22;62792;46.236;6.040;2023-05-16T22:31:59;23.40;50.00
74359;DHT22;62792;46.236;6.040;2023-05-16T22:37:02;23.40;49.80
74359;DHT22;62792;46.236;6.040;2023-05-16T22:42:05;23.40;49.90
74359;DHT22;62792;46.236;6.040;2023-05-16T22:47:10;23.50;49.60
74359;DHT22;62792;46.236;6.040;2023-05-16T22:52:12;23.50;49.70
74359;DHT22;62792;46.236;6.040;2023-05-16T22:57:16;23.40;49.60
74359;DHT22;62792;46.236;6.040;2023-05-16T23:02:20;23.40;49.50
74359;DHT22;62792;46.236;6.040;2023-05-16T23:07:23;23.40;49.50
74359;DHT22;62792;46.236;6.040;2023-05-16T23:12:32;23.40;49.20
74359;DHT22;62792;46.236;6.040;2023-05-16T23:17:36;23.40;49.30
74359;DHT22;62792;46.236;6.040;2023-05-16T23:22:40;23.40;49.30
74359;DHT22;62792;46.236;6.040;2023-05-16T23:27:42;23.30;48.80
74359;DHT22;62792;46.236;6.040;2023-05-16T23:32:47;23.40;49.00
74359;DHT22;62792;46.236;6.040;2023-05-16T23:37:51;23.30;48.90
74359;DHT22;62792;46.236;6.040;2023-05-16T23:42:54;23.30;48.70
74359;DHT22;62792;46.236;6.040;2023-05-16T23:47:59;23.40;48.90
74359;DHT22;62792;46.236;6.040;2023-05-16T23:53:02;23.30;48.50
74359;DHT22;62792;46.236;6.040;2023-05-16T23:58:05;23.30;48.60
